sensor_id;sensor_type;location;lat;lon;timestamp;pressure;altitude;pressure_sealevel;temperature;humidity
73860;BME280;62197;51.632;13.700;2023-08-12T00:02:23;100672.94;;;17.00;100.00
73860;BME280;62197;51.632;13.700;2023-08-12T00:04:48;100671.25;;;16.94;100.00
73860;BME280;62197;51.632;13.700;2023-08-12T00:07:14;100681.31;;;16.85;100.00
73860;BME280;62197;51.632;13.700;2023-08-12T00:09:39;100676.00;;;16.89;100.00
73860;BME280;62197;51.632;13.700;2023-08-12T00:12:04;100682.69;;;16.83;100.00
73860;BME280;62197;51.632;13.700;2023-08-12T00:14:30;100676.84;;;16.94;100.00
73860;BME280;62197;51.632;13.700;2023-08-12T00:16:55;100669.59;;;16.88;100.00
73860;BME280;62197;51.632;13.700;2023-08-12T00:19:20;100677.13;;;16.93;100.00
73860;BME280;62197;51.632;13.700;2023-08-12T00:21:46;100674.88;;;16.85;100.00
73860;BME280;62197;51.632;13.700;2023-08-12T00:24:11;100673.75;;;16.71;100.00
73860;BME280;62197;51.632;13.700;2023-08-12T00:26:36;100682.41;;;16.89;100.00
73860;BME280;62197;51.632;13.700;2023-08-12T00:29:02;100679.59;;;16.74;100.00
73860;BME280;62197;51.632;13.700;2023-08-12T00:31:27;100674.88;;;16.70;100.00
73860;BME280;62197;51.632;13.700;2023-08-12T00:33:53;100679.38;;;16.86;100.00
73860;BME280;62197;51.632;13.700;2023-08-12T00:36:18;100675.72;;;16.90;100.00
73860;BME280;62197;51.632;13.700;2023-08-12T00:38:43;100669.88;;;16.82;100.00
73860;BME280;62197;51.632;13.700;2023-08-12T00:41:09;100662.34;;;16.87;100.00
73860;BME280;62197;51.632;13.700;2023-08-12T00:43:34;100660.41;;;16.78;100.00
73860;BME280;62197;51.632;13.700;2023-08-12T00:45:59;100660.41;;;16.78;100.00
73860;BME280;62197;51.632;13.700;2023-08-12T00:48:25;100658.72;;;16.82;100.00
73860;BME280;62197;51.632;13.700;2023-08-12T00:50:51;100655.34;;;16.90;100.00
73860;BME280;62197;51.632;13.700;2023-08-12T00:53:17;100653.69;;;16.79;100.00
73860;BME280;62197;51.632;13.700;2023-08-12T00:55:42;100663.16;;;16.68;100.00
73860;BME280;62197;51.632;13.700;2023-08-12T00:58:08;100658.69;;;16.67;100.00
73860;BME280;62197;51.632;13.700;2023-08-12T01:00:34;100666.22;;;16.61;100.00
73860;BME280;62197;51.632;13.700;2023-08-12T01:03:00;100664.84;;;16.59;100.00
73860;BME280;62197;51.632;13.700;2023-08-12T01:05:25;100656.47;;;16.69;100.00
73860;BME280;62197;51.632;13.700;2023-08-12T01:07:51;100654.53;;;16.64;100.00
73860;BME280;62197;51.632;13.700;2023-08-12T01:10:19;100660.34;;;16.63;100.00
73860;BME280;62197;51.632;13.700;2023-08-12T01:16:01;100646.97;;;16.65;100.00
73860;BME280;62197;51.632;13.700;2023-08-12T01:18:28;100639.72;;;16.54;100.00
73860;BME280;62197;51.632;13.700;2023-08-12T01:20:54;100643.66;;;16.73;100.00
73860;BME280;62197;51.632;13.700;2023-08-12T01:23:20;100635.03;;;16.89;100.00
73860;BME280;62197;51.632;13.700;2023-08-12T01:25:45;100639.75;;;16.94;100.00
73860;BME280;62197;51.632;13.700;2023-08-12T01:28:11;100626.38;;;16.91;100.00
73860;BME280;62197;51.632;13.700;2023-08-12T01:30:44;100627.47;;;17.00;100.00
73860;BME280;62197;51.632;13.700;2023-08-12T01:33:32;100630.81;;;17.12;100.00
73860;BME280;62197;51.632;13.700;2023-08-12T01:36:09;100626.38;;;17.01;100.00
73860;BME280;62197;51.632;13.700;2023-08-12T01:38:38;100615.25;;;16.86;100.00
73860;BME280;62197;51.632;13.700;2023-08-12T01:41:06;100619.69;;;16.72;100.00
73860;BME280;62197;51.632;13.700;2023-08-12T01:43:32;100624.72;;;16.85;100.00
73860;BME280;62197;51.632;13.700;2023-08-12T01:45:58;100615.78;;;16.88;100.00
73860;BME280;62197;51.632;13.700;2023-08-12T01:48:23;100617.16;;;16.80;100.00
73860;BME280;62197;51.632;13.700;2023-08-12T01:50:49;100613.00;;;16.68;100.00
73860;BME280;62197;51.632;13.700;2023-08-12T01:53:14;100615.50;;;16.69;100.00
73860;BME280;62197;51.632;13.700;2023-08-12T01:55:43;100611.34;;;16.57;100.00
73860;BME280;62197;51.632;13.700;2023-08-12T01:58:08;100616.88;;;16.52;100.00
73860;BME280;62197;51.632;13.700;2023-08-12T02:00:33;100611.88;;;16.54;100.00
73860;BME280;62197;51.632;13.700;2023-08-12T02:02:59;100613.00;;;16.53;100.00
73860;BME280;62197;51.632;13.700;2023-08-12T02:05:24;100605.69;;;16.37;100.00
73860;BME280;62197;51.632;13.700;2023-08-12T02:07:49;100612.16;;;16.57;100.00
73860;BME280;62197;51.632;13.700;2023-08-12T02:10:15;100604.31;;;16.44;100.00
73860;BME280;62197;51.632;13.700;2023-08-12T02:12:40;100604.91;;;16.71;100.00
73860;BME280;62197;51.632;13.700;2023-08-12T02:15:06;100599.91;;;16.73;100.00
73860;BME280;62197;51.632;13.700;2023-08-12T02:17:31;100593.78;;;16.66;100.00
73860;BME280;62197;51.632;13.700;2023-08-12T02:19:56;100588.47;;;16.60;100.00
73860;BME280;62197;51.632;13.700;2023-08-12T02:22:22;100582.34;;;16.53;100.00
73860;BME280;62197;51.632;13.700;2023-08-12T02:24:48;100582.00;;;16.34;100.00
73860;BME280;62197;51.632;13.700;2023-08-12T02:27:13;100579.50;;;16.33;100.00
73860;BME280;62197;51.632;13.700;2023-08-12T02:29:39;100579.50;;;16.27;100.00
73860;BME280;62197;51.632;13.700;2023-08-12T02:32:04;100583.13;;;16.23;100.00
73860;BME280;62197;51.632;13.700;2023-08-12T02:34:29;100577.81;;;16.21;100.00
73860;BME280;62197;51.632;13.700;2023-08-12T02:36:55;100569.47;;;16.26;100.00
73860;BME280;62197;51.632;13.700;2023-08-12T02:39:20;100575.59;;;16.23;100.00
73860;BME280;62197;51.632;13.700;2023-08-12T02:41:45;100572.25;;;16.21;100.00
73860;BME280;62197;51.632;13.700;2023-08-12T02:44:11;100576.69;;;16.22;100.00
73860;BME280;62197;51.632;13.700;2023-08-12T02:46:36;100575.31;;;16.30;100.00
73860;BME280;62197;51.632;13.700;2023-08-12T02:49:01;100572.25;;;16.26;100.00
73860;BME280;62197;51.632;13.700;2023-08-12T02:51:27;100577.03;;;16.51;100.00
73860;BME280;62197;51.632;13.700;2023-08-12T02:53:52;100581.78;;;16.56;100.00
73860;BME280;62197;51.632;13.700;2023-08-12T02:56:17;100570.09;;;16.59;100.00
73860;BME280;62197;51.632;13.700;2023-08-12T02:58:43;100565.91;;;16.56;100.00
73860;BME280;62197;51.632;13.700;2023-08-12T03:01:08;100564.50;;;16.54;100.00
73860;BME280;62197;51.632;13.700;2023-08-12T03:03:33;100561.19;;;16.57;100.00
73860;BME280;62197;51.632;13.700;2023-08-12T03:05:59;100560.84;;;16.38;100.00
73860;BME280;62197;51.632;13.700;2023-08-12T03:08:24;100565.03;;;16.25;100.00
73860;BME280;62197;51.632;13.700;2023-08-12T03:10:49;100563.34;;;16.24;100.00
73860;BME280;62197;51.632;13.700;2023-08-12T03:13:15;100567.78;;;16.20;100.00
73860;BME280;62197;51.632;13.700;2023-08-12T03:15:40;100560.53;;;16.14;100.00
73860;BME280;62197;51.632;13.700;2023-08-12T03:18:07;100555.53;;;16.16;100.00
73860;BME280;62197;51.632;13.700;2023-08-12T03:20:32;100556.66;;;16.25;100.00
73860;BME280;62197;51.632;13.700;2023-08-12T03:22:58;100551.34;;;16.24;100.00
73860;BME280;62197;51.632;13.700;2023-08-12T03:25:23;100553.88;;;16.36;100.00
73860;BME280;62197;51.632;13.700;2023-08-12T03:27:48;100555.56;;;16.37;100.00
73860;BME280;62197;51.632;13.700;2023-08-12T03:30:14;100556.69;;;16.41;100.00
73860;BME280;62197;51.632;13.700;2023-08-12T03:32:39;100556.09;;;16.44;100.00
73860;BME280;62197;51.632;13.700;2023-08-12T03:35:04;100558.63;;;16.45;100.00
73860;BME280;62197;51.632;13.700;2023-08-12T03:37:30;100556.66;;;16.46;100.00
73860;BME280;62197;51.632;13.700;2023-08-12T03:39:55;100548.09;;;16.62;100.00
73860;BME280;62197;51.632;13.700;2023-08-12T03:42:20;100543.63;;;16.56;100.00
73860;BME280;62197;51.632;13.700;2023-08-12T03:44:46;100547.78;;;16.69;100.00
73860;BME280;62197;51.632;13.700;2023-08-12T03:47:11;100546.41;;;16.71;100.00
73860;BME280;62197;51.632;13.700;2023-08-12T03:49:37;100539.97;;;16.61;100.00
73860;BME280;62197;51.632;13.700;2023-08-12T03:52:03;100536.34;;;16.45;100.00
73860;BME280;62197;51.632;13.700;2023-08-12T03:54:28;100526.59;;;16.43;100.00
73860;BME280;62197;51.632;13.700;2023-08-12T03:56:54;100533.56;;;16.40;100.00
73860;BME280;62197;51.632;13.700;2023-08-12T03:59:19;100530.47;;;16.42;100.00
73860;BME280;62197;51.632;13.700;2023-08-12T04:01:44;100539.94;;;16.36;100.00
73860;BME280;62197;51.632;13.700;2023-08-12T04:04:10;100531.91;;;16.49;100.00
73860;BME280;62197;51.632;13.700;2023-08-12T04:06:36;100531.91;;;16.49;100.00
73860;BME280;62197;51.632;13.700;2023-08-12T04:09:02;100529.94;;;16.45;100.00
73860;BME280;62197;51.632;13.700;2023-08-12T04:11:27;100536.38;;;16.65;100.00
73860;BME280;62197;51.632;13.700;2023-08-12T04:13:52;100534.97;;;16.63;100.00
73860;BME280;62197;51.632;13.700;2023-08-12T04:16:18;100530.25;;;16.48;100.00
73860;BME280;62197;51.632;13.700;2023-08-12T04:18:43;100531.59;;;16.41;100.00
73860;BME280;62197;51.632;13.700;2023-08-12T04:21:08;100534.41;;;16.41;100.00
73860;BME280;62197;51.632;13.700;2023-08-12T04:23:34;100528.88;;;16.51;100.00
73860;BME280;62197;51.632;13.700;2023-08-12T04:25:59;100528.31;;;16.59;100.00
73860;BME280;62197;51.632;13.700;2023-08-12T04:28:25;100526.06;;;16.66;100.00
73860;BME280;62197;51.632;13.700;2023-08-12T04:30:50;100523.25;;;16.71;100.00
73860;BME280;62197;51.632;13.700;2023-08-12T04:33:17;100527.72;;;16.67;100.00
73860;BME280;62197;51.632;13.700;2023-08-12T04:35:44;100523.84;;;16.68;100.00
73860;BME280;62197;51.632;13.700;2023-08-12T04:38:10;100517.69;;;16.71;100.00
73860;BME280;62197;51.632;13.700;2023-08-12T04:40:38;100526.31;;;16.74;100.00
73860;BME280;62197;51.632;13.700;2023-08-12T04:43:04;100524.38;;;16.80;100.00
73860;BME280;62197;51.632;13.700;2023-08-12T04:45:30;100520.47;;;16.86;100.00
73860;BME280;62197;51.632;13.700;2023-08-12T04:47:57;100522.34;;;17.05;100.00
73860;BME280;62197;51.632;13.700;2023-08-12T04:50:25;100517.56;;;17.21;100.00
73860;BME280;62197;51.632;13.700;2023-08-12T04:52:54;100507.75;;;17.39;100.00
73860;BME280;62197;51.632;13.700;2023-08-12T04:55:19;100509.09;;;17.46;100.00
73860;BME280;62197;51.632;13.700;2023-08-12T04:57:45;100512.22;;;17.50;100.00
73860;BME280;62197;51.632;13.700;2023-08-12T05:00:10;100507.44;;;17.55;100.00
73860;BME280;62197;51.632;13.700;2023-08-12T05:02:36;100513.53;;;17.62;100.00
73860;BME280;62197;51.632;13.700;2023-08-12T05:05:01;100509.00;;;17.76;100.00
73860;BME280;62197;51.632;13.700;2023-08-12T05:07:26;100501.66;;;17.85;100.00
73860;BME280;62197;51.632;13.700;2023-08-12T05:09:52;100509.94;;;18.00;100.00
73860;BME280;62197;51.632;13.700;2023-08-12T05:12:17;100508.72;;;18.17;100.00
73860;BME280;62197;51.632;13.700;2023-08-12T05:14:43;100500.22;;;18.32;100.00
73860;BME280;62197;51.632;13.700;2023-08-12T05:17:08;100502.66;;;18.43;100.00
73860;BME280;62197;51.632;13.700;2023-08-12T05:19:33;100499.06;;;18.71;100.00
73860;BME280;62197;51.632;13.700;2023-08-12T05:21:59;100487.91;;;18.95;100.00
73860;BME280;62197;51.632;13.700;2023-08-12T05:24:24;100486.38;;;19.08;100.00
73860;BME280;62197;51.632;13.700;2023-08-12T05:26:49;100476.03;;;19.08;100.00
73860;BME280;62197;51.632;13.700;2023-08-12T05:29:15;100473.75;;;19.10;100.00
73860;BME280;62197;51.632;13.700;2023-08-12T05:31:40;100476.25;;;19.12;100.00
73860;BME280;62197;51.632;13.700;2023-08-12T05:34:05;100474.66;;;19.29;100.00
73860;BME280;62197;51.632;13.700;2023-08-12T05:36:31;100470.94;;;19.57;100.00
73860;BME280;62197;51.632;13.700;2023-08-12T05:38:56;100472.84;;;19.80;100.00
73860;BME280;62197;51.632;13.700;2023-08-12T05:41:21;100466.59;;;20.07;100.00
73860;BME280;62197;51.632;13.700;2023-08-12T05:43:48;100467.31;;;20.31;100.00
73860;BME280;62197;51.632;13.700;2023-08-12T05:46:13;100464.91;;;20.57;100.00
73860;BME280;62197;51.632;13.700;2023-08-12T05:48:38;100462.88;;;20.76;100.00
73860;BME280;62197;51.632;13.700;2023-08-12T05:51:04;100466.53;;;20.90;100.00
73860;BME280;62197;51.632;13.700;2023-08-12T05:53:29;100460.03;;;21.08;100.00
73860;BME280;62197;51.632;13.700;2023-08-12T05:55:54;100456.94;;;21.23;100.00
73860;BME280;62197;51.632;13.700;2023-08-12T05:58:20;100455.44;;;21.39;100.00
73860;BME280;62197;51.632;13.700;2023-08-12T06:00:45;100458.78;;;21.41;100.00
73860;BME280;62197;51.632;13.700;2023-08-12T06:03:11;100439.66;;;21.30;100.00
73860;BME280;62197;51.632;13.700;2023-08-12T06:05:37;100454.19;;;21.45;100.00
73860;BME280;62197;51.632;13.700;2023-08-12T06:08:03;100454.56;;;21.66;100.00
73860;BME280;62197;51.632;13.700;2023-08-12T06:10:28;100454.25;;;21.95;100.00
73860;BME280;62197;51.632;13.700;2023-08-12T06:12:53;100458.50;;;22.14;100.00
73860;BME280;62197;51.632;13.700;2023-08-12T06:15:19;100454.88;;;22.36;100.00
73860;BME280;62197;51.632;13.700;2023-08-12T06:17:44;100452.84;;;22.50;100.00
73860;BME280;62197;51.632;13.700;2023-08-12T06:20:11;100449.66;;;22.65;100.00
73860;BME280;62197;51.632;13.700;2023-08-12T06:22:36;100447.34;;;22.67;100.00
73860;BME280;62197;51.632;13.700;2023-08-12T06:25:01;100452.34;;;22.70;100.00
73860;BME280;62197;51.632;13.700;2023-08-12T06:27:27;100451.97;;;22.63;100.00
73860;BME280;62197;51.632;13.700;2023-08-12T06:29:52;100454.16;;;22.66;100.00
73860;BME280;62197;51.632;13.700;2023-08-12T06:32:17;100454.47;;;22.65;100.00
73860;BME280;62197;51.632;13.700;2023-08-12T06:34:43;100455.09;;;22.62;100.00
73860;BME280;62197;51.632;13.700;2023-08-12T06:37:08;100451.50;;;22.70;100.00
73860;BME280;62197;51.632;13.700;2023-08-12T06:39:33;100457.97;;;22.70;100.00
73860;BME280;62197;51.632;13.700;2023-08-12T06:41:59;100454.59;;;22.90;100.00
73860;BME280;62197;51.632;13.700;2023-08-12T06:44:24;100458.41;;;22.94;100.00
73860;BME280;62197;51.632;13.700;2023-08-12T06:46:49;100462.13;;;23.03;100.00
73860;BME280;62197;51.632;13.700;2023-08-12T06:49:15;100451.06;;;23.15;100.00
73860;BME280;62197;51.632;13.700;2023-08-12T06:51:41;100450.44;;;23.18;100.00
73860;BME280;62197;51.632;13.700;2023-08-12T06:54:06;100450.09;;;23.20;100.00
73860;BME280;62197;51.632;13.700;2023-08-12T06:56:32;100445.81;;;23.22;100.00
73860;BME280;62197;51.632;13.700;2023-08-12T06:58:57;100439.75;;;23.38;100.00
73860;BME280;62197;51.632;13.700;2023-08-12T07:01:22;100447.03;;;23.39;100.00
73860;BME280;62197;51.632;13.700;2023-08-12T07:03:48;100441.69;;;23.28;100.00
73860;BME280;62197;51.632;13.700;2023-08-12T07:06:13;100446.22;;;23.38;100.00
73860;BME280;62197;51.632;13.700;2023-08-12T07:08:38;100450.06;;;23.42;100.00
73860;BME280;62197;51.632;13.700;2023-08-12T07:11:04;100438.97;;;23.63;100.00
73860;BME280;62197;51.632;13.700;2023-08-12T07:13:30;100439.31;;;23.87;100.00
73860;BME280;62197;51.632;13.700;2023-08-12T07:15:55;100435.56;;;24.17;100.00
73860;BME280;62197;51.632;13.700;2023-08-12T07:18:20;100442.84;;;24.18;100.00
73860;BME280;62197;51.632;13.700;2023-08-12T07:20:48;100437.19;;;24.35;100.00
73860;BME280;62197;51.632;13.700;2023-08-12T07:23:13;100437.53;;;24.42;100.00
73860;BME280;62197;51.632;13.700;2023-08-12T07:25:38;100434.53;;;24.47;100.00
73860;BME280;62197;51.632;13.700;2023-08-12T07:28:04;100436.22;;;24.31;100.00
73860;BME280;62197;51.632;13.700;2023-08-12T07:30:29;100449.13;;;24.49;100.00
73860;BME280;62197;51.632;13.700;2023-08-12T07:32:55;100441.00;;;24.56;100.00
73860;BME280;62197;51.632;13.700;2023-08-12T07:35:20;100441.28;;;24.80;100.00
73860;BME280;62197;51.632;13.700;2023-08-12T07:37:45;100440.16;;;25.11;100.00
73860;BME280;62197;51.632;13.700;2023-08-12T07:40:11;100436.31;;;25.24;100.00
73860;BME280;62197;51.632;13.700;2023-08-12T07:42:37;100435.81;;;25.22;100.00
73860;BME280;62197;51.632;13.700;2023-08-12T07:45:03;100430.41;;;24.99;100.00
73860;BME280;62197;51.632;13.700;2023-08-12T07:47:28;100431.19;;;24.79;100.00
73860;BME280;62197;51.632;13.700;2023-08-12T07:49:54;100428.19;;;24.67;100.00
73860;BME280;62197;51.632;13.700;2023-08-12T07:52:19;100431.97;;;24.88;100.00
73860;BME280;62197;51.632;13.700;2023-08-12T07:54:45;100424.25;;;25.06;100.00
73860;BME280;62197;51.632;13.700;2023-08-12T07:57:10;100427.72;;;25.12;100.00
73860;BME280;62197;51.632;13.700;2023-08-12T07:59:36;100412.41;;;25.13;100.00
73860;BME280;62197;51.632;13.700;2023-08-12T08:02:01;100424.03;;;25.20;100.00
73860;BME280;62197;51.632;13.700;2023-08-12T08:04:26;100416.47;;;25.41;100.00
73860;BME280;62197;51.632;13.700;2023-08-12T08:06:52;100422.34;;;25.27;100.00
73860;BME280;62197;51.632;13.700;2023-08-12T08:09:17;100421.00;;;25.25;100.00
73860;BME280;62197;51.632;13.700;2023-08-12T08:11:42;100415.19;;;25.30;100.00
73860;BME280;62197;51.632;13.700;2023-08-12T08:14:08;100420.63;;;25.35;100.00
73860;BME280;62197;51.632;13.700;2023-08-12T08:16:33;100418.09;;;25.71;100.00
73860;BME280;62197;51.632;13.700;2023-08-12T08:18:58;100418.69;;;26.26;100.00
73860;BME280;62197;51.632;13.700;2023-08-12T08:21:24;100417.78;;;26.46;100.00
73860;BME280;62197;51.632;13.700;2023-08-12T08:23:49;100409.06;;;26.39;100.00
73860;BME280;62197;51.632;13.700;2023-08-12T08:26:15;100414.53;;;26.24;100.00
73860;BME280;62197;51.632;13.700;2023-08-12T08:28:41;100424.66;;;26.45;100.00
73860;BME280;62197;51.632;13.700;2023-08-12T08:31:06;100418.03;;;26.74;100.00
73860;BME280;62197;51.632;13.700;2023-08-12T08:33:31;100411.63;;;27.10;100.00
73860;BME280;62197;51.632;13.700;2023-08-12T08:35:57;100425.06;;;27.13;100.00
73860;BME280;62197;51.632;13.700;2023-08-12T08:38:22;100421.53;;;27.04;100.00
73860;BME280;62197;51.632;13.700;2023-08-12T08:40:49;100420.06;;;26.86;100.00
73860;BME280;62197;51.632;13.700;2023-08-12T08:43:20;100418.56;;;26.55;100.00
73860;BME280;62197;51.632;13.700;2023-08-12T08:45:49;100419.28;;;26.64;100.00
73860;BME280;62197;51.632;13.700;2023-08-12T08:48:17;100425.06;;;26.68;100.00
73860;BME280;62197;51.632;13.700;2023-08-12T08:50:44;100428.69;;;26.77;100.00
73860;BME280;62197;51.632;13.700;2023-08-12T08:53:11;100419.69;;;26.75;100.00
73860;BME280;62197;51.632;13.700;2023-08-12T08:55:39;100430.06;;;26.71;100.00
73860;BME280;62197;51.632;13.700;2023-08-12T08:58:05;100428.03;;;26.71;100.00
73860;BME280;62197;51.632;13.700;2023-08-12T09:00:31;100422.66;;;26.91;100.00
73860;BME280;62197;51.632;13.700;2023-08-12T09:02:57;100422.94;;;27.10;100.00
73860;BME280;62197;51.632;13.700;2023-08-12T09:05:23;100416.19;;;27.14;100.00
73860;BME280;62197;51.632;13.700;2023-08-12T09:07:49;100422.47;;;27.08;100.00
73860;BME280;62197;51.632;13.700;2023-08-12T09:10:17;100426.38;;;27.15;100.00
73860;BME280;62197;51.632;13.700;2023-08-12T09:12:45;100429.09;;;27.12;100.00
73860;BME280;62197;51.632;13.700;2023-08-12T09:15:12;100421.72;;;26.99;100.00
73860;BME280;62197;51.632;13.700;2023-08-12T09:17:38;100422.91;;;26.86;100.00
73860;BME280;62197;51.632;13.700;2023-08-12T09:20:04;100429.84;;;26.76;100.00
73860;BME280;62197;51.632;13.700;2023-08-12T09:22:37;100424.69;;;26.57;100.00
73860;BME280;62197;51.632;13.700;2023-08-12T09:25:02;100422.50;;;26.42;100.00
73860;BME280;62197;51.632;13.700;2023-08-12T09:27:31;100423.06;;;26.36;100.00
73860;BME280;62197;51.632;13.700;2023-08-12T09:29:56;100421.38;;;26.23;100.00
73860;BME280;62197;51.632;13.700;2023-08-12T09:32:23;100416.03;;;25.80;100.00
73860;BME280;62197;51.632;13.700;2023-08-12T09:34:50;100408.72;;;25.79;100.00
73860;BME280;62197;51.632;13.700;2023-08-12T09:37:17;100402.94;;;25.96;100.00
73860;BME280;62197;51.632;13.700;2023-08-12T09:39:42;100398.19;;;26.09;100.00
73860;BME280;62197;51.632;13.700;2023-08-12T09:42:07;100395.50;;;26.12;100.00
73860;BME280;62197;51.632;13.700;2023-08-12T09:44:37;100399.97;;;26.13;100.00
73860;BME280;62197;51.632;13.700;2023-08-12T09:47:02;100400.31;;;26.32;100.00
73860;BME280;62197;51.632;13.700;2023-08-12T09:49:28;100404.63;;;26.62;100.00
73860;BME280;62197;51.632;13.700;2023-08-12T09:51:53;100398.59;;;26.85;100.00
73860;BME280;62197;51.632;13.700;2023-08-12T09:54:19;100392.13;;;27.20;100.00
73860;BME280;62197;51.632;13.700;2023-08-12T09:56:47;100388.69;;;27.63;100.00
73860;BME280;62197;51.632;13.700;2023-08-12T09:59:17;100381.94;;;28.19;100.00
73860;BME280;62197;51.632;13.700;2023-08-12T10:01:43;100384.53;;;28.68;100.00
73860;BME280;62197;51.632;13.700;2023-08-12T10:04:11;100389.91;;;29.16;100.00
73860;BME280;62197;51.632;13.700;2023-08-12T10:06:40;100388.97;;;29.43;100.00
73860;BME280;62197;51.632;13.700;2023-08-12T10:09:06;100377.59;;;29.43;100.00
73860;BME280;62197;51.632;13.700;2023-08-12T10:11:34;100381.22;;;29.59;100.00
73860;BME280;62197;51.632;13.700;2023-08-12T10:14:00;100380.94;;;29.64;100.00
73860;BME280;62197;51.632;13.700;2023-08-12T10:16:28;100373.06;;;29.73;100.00
73860;BME280;62197;51.632;13.700;2023-08-12T10:18:55;100366.78;;;29.68;100.00
73860;BME280;62197;51.632;13.700;2023-08-12T10:21:21;100370.91;;;28.89;100.00
73860;BME280;62197;51.632;13.700;2023-08-12T10:23:48;100368.34;;;28.99;100.00
73860;BME280;62197;51.632;13.700;2023-08-12T10:26:15;100366.53;;;28.91;100.00
73860;BME280;62197;51.632;13.700;2023-08-12T10:28:42;100375.03;;;29.07;100.00
73860;BME280;62197;51.632;13.700;2023-08-12T10:31:07;100363.59;;;28.88;100.00
73860;BME280;62197;51.632;13.700;2023-08-12T10:33:37;100359.28;;;28.63;100.00
73860;BME280;62197;51.632;13.700;2023-08-12T10:36:03;100362.34;;;28.58;100.00
73860;BME280;62197;51.632;13.700;2023-08-12T10:38:28;100347.69;;;28.56;100.00
73860;BME280;62197;51.632;13.700;2023-08-12T10:41:15;100339.41;;;28.35;100.00
73860;BME280;62197;51.632;13.700;2023-08-12T10:43:59;100350.81;;;28.23;100.00
73860;BME280;62197;51.632;13.700;2023-08-12T10:46:33;100340.25;;;28.51;100.00
73860;BME280;62197;51.632;13.700;2023-08-12T10:49:03;100343.16;;;28.67;100.00
73860;BME280;62197;51.632;13.700;2023-08-12T10:51:51;100343.72;;;28.88;100.00
73860;BME280;62197;51.632;13.700;2023-08-12T10:54:20;100337.28;;;28.91;100.00
73860;BME280;62197;51.632;13.700;2023-08-12T11:02:16;100339.66;;;28.58;100.00
73860;BME280;62197;51.632;13.700;2023-08-12T11:04:42;100334.50;;;28.63;100.00
73860;BME280;62197;51.632;13.700;2023-08-12T11:07:18;100328.13;;;28.82;100.00
73860;BME280;62197;51.632;13.700;2023-08-12T11:09:44;100331.44;;;28.84;100.00
73860;BME280;62197;51.632;13.700;2023-08-12T11:12:10;100337.47;;;28.82;98.40
73860;BME280;62197;51.632;13.700;2023-08-12T11:14:53;100333.81;;;28.82;100.00
73860;BME280;62197;51.632;13.700;2023-08-12T11:17:18;100325.00;;;29.18;100.00
73860;BME280;62197;51.632;13.700;2023-08-12T11:19:44;100326.97;;;29.33;100.00
73860;BME280;62197;51.632;13.700;2023-08-12T11:22:09;100327.53;;;29.23;100.00
73860;BME280;62197;51.632;13.700;2023-08-12T11:24:40;100332.22;;;29.31;100.00
73860;BME280;62197;51.632;13.700;2023-08-12T11:27:09;100330.50;;;29.26;100.00
73860;BME280;62197;51.632;13.700;2023-08-12T11:29:34;100332.13;;;28.81;100.00
73860;BME280;62197;51.632;13.700;2023-08-12T11:32:00;100325.59;;;28.49;100.00
73860;BME280;62197;51.632;13.700;2023-08-12T11:34:26;100318.75;;;28.66;100.00
73860;BME280;62197;51.632;13.700;2023-08-12T11:36:51;100314.56;;;28.91;100.00
73860;BME280;62197;51.632;13.700;2023-08-12T11:39:17;100319.75;;;29.04;100.00
73860;BME280;62197;51.632;13.700;2023-08-12T11:41:42;100313.84;;;28.94;100.00
73860;BME280;62197;51.632;13.700;2023-08-12T11:44:17;100308.16;;;28.94;100.00
73860;BME280;62197;51.632;13.700;2023-08-12T11:46:46;100308.88;;;28.91;100.00
73860;BME280;62197;51.632;13.700;2023-08-12T11:49:11;100312.00;;;28.86;100.00
73860;BME280;62197;51.632;13.700;2023-08-12T11:51:36;100302.34;;;28.75;100.00
73860;BME280;62197;51.632;13.700;2023-08-12T11:54:02;100298.47;;;28.51;100.00
73860;BME280;62197;51.632;13.700;2023-08-12T11:56:28;100296.66;;;28.43;100.00
73860;BME280;62197;51.632;13.700;2023-08-12T11:58:54;100297.75;;;28.39;100.00
73860;BME280;62197;51.632;13.700;2023-08-12T12:01:21;100299.81;;;28.26;100.00
73860;BME280;62197;51.632;13.700;2023-08-12T12:03:51;100302.13;;;28.36;100.00
73860;BME280;62197;51.632;13.700;2023-08-12T12:06:16;100304.91;;;28.05;100.00
73860;BME280;62197;51.632;13.700;2023-08-12T12:08:44;100297.75;;;27.56;100.00
73860;BME280;62197;51.632;13.700;2023-08-12T12:11:09;100302.03;;;27.38;100.00
73860;BME280;62197;51.632;13.700;2023-08-12T12:13:35;100308.78;;;27.21;100.00
73860;BME280;62197;51.632;13.700;2023-08-12T12:16:00;100313.88;;;27.04;100.00
73860;BME280;62197;51.632;13.700;2023-08-12T12:18:26;100309.81;;;26.68;100.00
73860;BME280;62197;51.632;13.700;2023-08-12T12:20:58;100315.47;;;26.56;100.00
73860;BME280;62197;51.632;13.700;2023-08-12T12:23:31;100303.16;;;26.28;100.00
73860;BME280;62197;51.632;13.700;2023-08-12T12:25:58;100314.94;;;26.30;100.00
73860;BME280;62197;51.632;13.700;2023-08-12T12:28:23;100315.16;;;26.25;100.00
73860;BME280;62197;51.632;13.700;2023-08-12T12:30:48;100305.13;;;25.95;100.00
73860;BME280;62197;51.632;13.700;2023-08-12T12:33:14;100314.09;;;25.76;100.00
73860;BME280;62197;51.632;13.700;2023-08-12T12:35:39;100322.03;;;25.83;100.00